Latest Weather Observations for Canterbury

IDN60901

Issued at 6:02 pm EST Saturday 5 September 2026 (issued every 10 minutes, with the page automatically refreshed every 10 minutes)

About weather observations | Map of Sydney area stations | Latest observations for Sydney area | Other Formats
Station Details ID: 066194 Name: CANTERBURY RACECOURSE AWS Lat: -33.91 Lon: 151.11 Height: 3.0 m
Data from the previous 72 hours. | See also: Recent months at Canterbury
Date/Time
EST
Temp
°C
App
Temp
°C
Dew
Point
°C
Rel
Hum
%
Delta-T
°C
Wind Press
QNH
hPa
Press
MSL
hPa
Rain since
9am
mm
Dir  Spd
km/h
Gust
km/h
Spd
kts
Gust
kts
05/06:00pm 21.4 17.2 12.5 57 5.0 N 26 39 14 21 - - 0.2
05/05:30pm 20.5 19.3 13.9 66 3.8 NNW 13 22 7 12 - - 0.2
05/05:00pm 20.5 18.1 13.9 66 3.8 WNW 19 30 10 16 - - 0.2
05/04:42pm 20.5 17.1 13.7 65 3.9 W 24 41 13 22 - - 0.2
05/04:30pm 21.9 16.5 12.2 54 5.5 WSW 32 63 17 34 - - 0.0
05/04:21pm 24.1 16.4 10.0 41 7.7 WSW 41 69 22 37 - - 0.0
05/04:00pm 29.2 22.3 6.6 24 12.0 W 32 61 17 33 - - 0.0
05/03:30pm 29.6 22.7 6.3 23 12.4 W 32 54 17 29 - - 0.0
05/03:00pm 30.9 23.8 3.8 18 13.9 WNW 30 52 16 28 - - 0.0
05/02:30pm 32.0 24.7 4.7 18 14.3 NW 32 48 17 26 - - 0.0
05/02:13pm 31.5 25.5 7.2 22 13.2 NNW 28 48 15 26 - - 0.0
05/02:12pm 31.5 25.8 6.5 21 13.4 NNW 26 44 14 24 - - 0.0
05/02:00pm 31.3 24.9 7.1 22 13.1 NNW 30 48 16 26 - - 0.0
05/01:36pm 30.3 23.9 6.9 23 12.6 NNW 30 48 16 26 - - 0.0
05/01:30pm 29.9 23.4 6.5 23 12.5 N 30 46 16 25 - - 0.0
05/01:28pm 30.0 24.0 7.2 24 12.3 NNW 28 44 15 24 - - 0.0
05/01:00pm 29.0 22.6 7.0 25 11.8 N 30 48 16 26 - - 0.0
05/12:30pm 28.5 22.4 8.2 28 11.1 NNW 30 44 16 24 - - 0.0
05/12:10pm 28.1 22.0 6.8 26 11.3 N 28 48 15 26 - - 0.0
05/12:00pm 28.3 23.4 8.6 29 10.8 NNW 24 37 13 20 - - 0.0
05/11:30am 27.5 23.0 8.4 30 10.4 N 22 33 12 18 - - 0.0
05/11:00am 27.0 23.0 8.4 31 10.1 NNW 19 30 10 16 - - 0.0
05/10:30am 25.5 21.1 6.7 30 9.8 NNW 19 28 10 15 - - 0.0
05/10:00am 24.8 21.1 6.5 31 9.5 NNW 15 24 8 13 - - 0.0
05/09:30am 23.8 20.6 7.0 34 8.7 NNW 13 22 7 12 - - 0.0
05/09:00am 22.5 20.3 9.3 43 7.1 NNW 11 17 6 9 - - 0.0
05/08:30am 20.4 17.6 8.7 47 6.1 NNW 13 26 7 14 - - 0.0
05/08:00am 17.4 17.2 11.9 70 3.0 W 4 7 2 4 - - 0.0
05/07:30am 14.5 13.9 11.8 84 1.5 WNW 6 9 3 5 - - 0.0
05/07:00am 12.0 12.6 11.8 99 0.1 CALM 0 0 0 0 - - 0.0
05/06:30am 10.1 10.2 10.0 99 0.1 CALM 0 0 0 0 - - 0.0
05/06:00am 10.5 10.6 10.3 99 0.1 CALM 0 0 0 0 - - 0.0
05/05:30am 10.5 10.6 10.3 99 0.1 CALM 0 0 0 0 - - 0.0
05/05:00am 10.4 10.5 10.1 98 0.2 CALM 0 0 0 0 - - 0.0
05/04:30am 10.6 10.7 10.1 97 0.3 CALM 0 2 0 1 - - 0.0
05/04:00am 11.0 11.3 10.8 99 0.1 CALM 0 0 0 0 - - 0.0
05/03:30am 10.9 11.1 10.7 99 0.1 CALM 0 0 0 0 - - 0.0
05/03:00am 11.3 11.7 11.1 99 0.1 CALM 0 0 0 0 - - 0.0
05/02:30am 11.5 11.9 11.3 99 0.1 CALM 0 0 0 0 - - 0.0
05/02:00am 11.6 12.0 11.4 99 0.1 CALM 0 0 0 0 - - 0.0
05/01:30am 12.1 12.6 11.6 97 0.3 CALM 0 0 0 0 - - 0.0
05/01:00am 12.2 12.8 11.9 98 0.2 CALM 0 0 0 0 - - 0.0
05/12:30am 12.0 12.5 11.5 97 0.3 CALM 0 0 0 0 - - 0.0
05/12:00am 12.0 12.2 10.7 92 0.7 CALM 0 0 0 0 - - 0.0
 
Date/Time
EST
Temp
°C
App
Temp
°C
Dew
Point
°C
Rel
Hum
%
Delta-T
°C
Wind Press
QNH
hPa
Press
MSL
hPa
Rain since
9am
mm
Dir  Spd
km/h
Gust
km/h
Spd
kts
Gust
kts
04/11:30pm 12.5 13.0 11.7 95 0.4 CALM 0 0 0 0 - - 0.0
04/11:00pm 12.8 13.3 11.5 92 0.7 CALM 0 0 0 0 - - 0.0
04/10:30pm 13.3 13.5 10.5 83 1.5 CALM 0 0 0 0 - - 0.0
04/10:00pm 13.8 14.2 11.1 84 1.4 CALM 0 0 0 0 - - 0.0
04/09:30pm 14.8 15.2 11.2 79 1.9 CALM 0 0 0 0 - - 0.0
04/09:00pm 15.7 15.8 10.2 70 2.9 CALM 0 0 0 0 - - 0.0
04/08:30pm 16.6 15.5 10.0 65 3.5 SSE 6 9 3 5 - - 0.0
04/08:00pm 15.8 16.1 10.8 72 2.7 CALM 0 9 0 5 - - 0.0
04/07:30pm 14.8 14.4 9.8 72 2.6 E 2 7 1 4 - - 0.0
04/07:00pm 16.5 16.2 10.1 66 3.4 E 2 7 1 4 - - 0.0
04/06:30pm 17.9 16.4 9.3 57 4.5 NE 7 9 4 5 - - 0.0
04/06:00pm 18.2 16.6 8.7 54 4.9 ENE 7 15 4 8 - - 0.0
04/05:30pm 19.2 16.9 7.6 47 5.9 NE 9 17 5 9 - - 0.0
04/05:00pm 20.4 17.0 7.7 44 6.5 ENE 15 22 8 12 - - 0.0
04/04:30pm 21.3 18.0 7.9 42 7.0 ENE 15 24 8 13 - - 0.0
04/04:00pm 23.6 22.0 4.5 29 9.5 NNE 2 13 1 7 - - 0.0
04/03:30pm 23.3 19.6 4.3 29 9.4 NNW 13 20 7 11 - - 0.0
04/03:00pm 23.1 20.6 3.6 28 9.5 NNW 6 15 3 8 - - 0.0
04/02:30pm 23.3 20.2 5.7 32 8.9 WNW 11 17 6 9 - - 0.0
04/02:00pm 22.9 19.6 4.4 30 9.1 W 11 19 6 10 - - 0.0
04/01:30pm 22.9 19.3 4.9 31 8.9 WNW 13 20 7 11 - - 0.0
04/01:00pm 21.9 18.4 3.6 30 8.8 W 11 24 6 13 - - 0.0
04/12:30pm 22.2 20.0 6.0 35 8.2 W 7 17 4 9 - - 0.0
04/12:00pm 21.6 19.0 5.9 36 7.9 NW 9 19 5 10 - - 0.0
04/11:30am 20.4 17.1 4.8 36 7.6 WNW 11 20 6 11 - - 0.0
04/11:00am 20.3 16.8 5.5 38 7.3 WNW 13 20 7 11 - - 0.0
04/10:30am 20.2 17.6 6.2 40 7.0 W 9 19 5 10 - - 0.0
04/10:00am 18.9 15.5 6.1 43 6.3 WSW 13 20 7 11 - - 0.0
04/09:30am 18.2 14.6 6.7 47 5.7 WSW 15 24 8 13 - - 0.0
04/09:00am 17.4 14.2 6.9 50 5.2 W 13 22 7 12 - - 0.0
04/08:30am 16.5 12.6 6.9 53 4.7 W 17 22 9 12 - - 0.0
04/08:00am 15.5 12.7 6.8 56 4.3 WNW 11 17 6 9 - - 0.0
04/07:30am 14.0 11.9 6.6 61 3.6 WNW 7 13 4 7 - - 0.0
04/07:00am 12.6 10.6 7.1 69 2.7 NW 7 11 4 6 - - 0.0
04/06:30am 10.9 10.1 6.5 74 2.1 CALM 0 6 0 3 - - 0.0
04/06:00am 11.4 9.7 6.1 70 2.5 W 4 7 2 4 - - 0.0
04/05:30am 11.6 9.9 6.1 69 2.6 W 4 9 2 5 - - 0.0
04/05:00am 11.8 9.7 5.7 66 2.8 W 6 9 3 5 - - 0.0
04/04:30am 12.5 10.1 5.2 61 3.4 W 7 11 4 6 - - 0.0
04/04:00am 13.6 10.9 5.5 58 3.8 W 9 13 5 7 - - 0.0
04/03:30am 14.2 11.0 5.3 55 4.2 W 11 15 6 8 - - 0.0
04/03:00am 13.9 11.5 5.3 56 4.0 SW 7 17 4 9 - - 0.0
04/02:30am 14.4 10.9 5.5 55 4.2 W 13 22 7 12 - - 0.0
04/02:00am 13.7 11.0 5.8 59 3.7 NW 9 17 5 9 - - 0.0
04/01:30am 13.6 11.4 5.5 58 3.8 WNW 6 11 3 6 - - 0.0
04/01:00am 14.7 12.3 5.2 53 4.5 WNW 7 13 4 7 - - 0.0
04/12:30am 15.7 12.2 5.3 50 4.9 W 13 22 7 12 - - 0.0
04/12:00am 16.1 11.8 5.1 48 5.2 W 17 28 9 15 - - 0.0
 
Date/Time
EST
Temp
°C
App
Temp
°C
Dew
Point
°C
Rel
Hum
%
Delta-T
°C
Wind Press
QNH
hPa
Press
MSL
hPa
Rain since
9am
mm
Dir  Spd
km/h
Gust
km/h
Spd
kts
Gust
kts
03/11:30pm 16.2 12.7 5.5 49 5.1 WSW 13 24 7 13 - - 0.0
03/11:00pm 16.6 12.4 5.6 48 5.3 WSW 17 28 9 15 - - 0.0
03/10:30pm 16.7 13.2 5.6 48 5.3 WSW 13 22 7 12 - - 0.0
03/10:00pm 17.4 13.2 5.7 46 5.7 WSW 17 24 9 13 - - 0.0
03/09:30pm 17.8 13.5 5.4 44 6.0 WSW 17 32 9 17 - - 0.0
03/09:00pm 18.2 14.9 4.7 41 6.5 W 11 20 6 11 - - 0.0
03/08:30pm 18.6 15.1 3.6 37 7.0 W 11 20 6 11 - - 0.0
03/08:00pm 18.9 15.5 3.9 37 7.1 W 11 17 6 9 - - 0.0
03/07:30pm 19.6 16.4 2.9 33 7.8 WNW 9 13 5 7 - - 0.0
03/07:00pm 20.7 17.0 2.5 30 8.5 WSW 11 17 6 9 - - 0.0
03/06:30pm 21.2 17.9 2.5 29 8.8 WSW 9 13 5 7 - - 0.0
03/06:00pm 22.0 19.0 2.2 27 9.3 WSW 7 15 4 8 - - 0.0
03/05:30pm 23.5 18.8 1.2 23 10.4 WSW 15 28 8 15 - - 0.0
03/05:00pm 24.7 19.7 1.6 22 10.9 WSW 17 26 9 14 - - 0.0
03/04:30pm 25.4 20.4 1.5 21 11.3 WSW 17 26 9 14 - - 0.0
03/04:00pm 25.9 20.5 2.6 22 11.3 W 20 33 11 18 - - 0.0
03/03:30pm 26.2 20.6 1.5 20 11.8 WSW 20 37 11 20 - - 0.0
03/03:00pm 26.2 20.5 2.8 22 11.4 W 22 35 12 19 - - 0.0
03/02:30pm 26.1 20.5 3.4 23 11.2 W 22 39 12 21 - - 0.0
03/02:00pm 26.2 20.0 2.2 21 11.6 WSW 24 43 13 23 - - 0.0
03/01:30pm 26.2 20.7 4.1 24 11.0 WSW 22 39 12 21 - - 0.0
03/01:00pm 25.9 20.3 7.0 30 9.9 WSW 26 46 14 25 - - 0.0
03/12:30pm 25.9 21.1 7.5 31 9.8 WSW 22 37 12 20 - - 0.0
03/12:00pm 25.7 20.9 7.3 31 9.7 WSW 22 39 12 21 - - 0.0
03/11:43am 26.0 21.3 7.6 31 9.8 WSW 22 35 12 19 - - 0.0
03/11:32am 25.8 19.7 6.4 29 10.1 SW 28 46 15 25 - - 0.0
03/11:30am 25.9 20.4 7.5 31 9.8 SW 26 41 14 22 - - 0.0
03/11:00am 25.7 20.4 6.8 30 9.9 WSW 24 35 13 19 - - 0.0
03/10:30am 25.6 20.8 7.2 31 9.7 W 22 41 12 22 - - 0.0
03/10:00am 25.5 21.3 8.1 33 9.3 W 20 35 11 19 - - 0.0
03/09:30am 25.1 21.2 8.6 35 8.9 NW 19 32 10 17 - - 0.0
03/09:00am 24.2 20.5 7.8 35 8.7 NW 17 26 9 14 - - 0.0
03/08:30am 23.5 19.8 8.0 37 8.2 NNW 17 30 9 16 - - 0.0
03/08:00am 21.6 19.9 9.8 47 6.4 N 9 15 5 8 - - 0.0
03/07:30am 19.5 19.9 11.3 59 4.5 CALM 0 0 0 0 - - 0.0
03/07:00am 18.0 17.3 9.9 59 4.3 NNW 4 6 2 3 - - 0.0
03/06:30am 18.6 16.7 9.1 54 5.0 N 9 13 5 7 - - 0.0
03/06:00am 18.7 16.5 9.2 54 5.0 N 11 15 6 8 - - 0.0
03/05:30am 19.2 16.2 9.1 52 5.3 N 15 20 8 11 - - 0.0
03/05:00am 20.0 17.1 9.6 51 5.5 N 15 22 8 12 - - 0.0
03/04:30am 19.1 17.8 9.9 55 4.9 NNW 7 13 4 7 - - 0.0
03/04:00am 19.1 18.4 8.7 51 5.4 NW 2 9 1 5 - - 0.0
03/03:30am 20.5 18.5 8.5 46 6.3 NNW 9 17 5 9 - - 0.0
03/03:00am 20.7 17.9 8.7 46 6.3 NNW 13 20 7 11 - - 0.0
03/02:30am 20.0 18.5 9.0 49 5.8 NNW 7 13 4 7 - - 0.0
03/02:00am 20.3 18.1 9.2 49 5.9 NNW 11 20 6 11 - - 0.0
03/01:30am 15.5 15.3 13.7 89 1.0 N 7 13 4 7 - - 0.0
03/01:00am 14.3 15.2 12.9 91 0.8 CALM 0 6 0 3 - - 0.0
03/12:30am 13.6 14.3 12.2 91 0.8 CALM 0 0 0 0 - - 0.0
03/12:00am 13.3 13.8 11.5 89 1.0 CALM 0 0 0 0 - - 0.0
 
Date/Time
EST
Temp
°C
App
Temp
°C
Dew
Point
°C
Rel
Hum
%
Delta-T
°C
Wind Press
QNH
hPa
Press
MSL
hPa
Rain since
9am
mm
Dir  Spd
km/h
Gust
km/h
Spd
kts
Gust
kts
02/11:30pm 13.4 13.9 11.6 89 1.0 CALM 0 0 0 0 - - 0.0
02/11:00pm 13.4 14.1 12.1 92 0.7 CALM 0 0 0 0 - - 0.0
02/10:30pm 14.2 14.9 12.1 87 1.1 CALM 0 0 0 0 - - 0.0
02/10:00pm 14.5 14.6 10.3 76 2.2 CALM 0 0 0 0 - - 0.0
02/09:30pm 14.8 14.9 10.2 74 2.4 CALM 0 0 0 0 - - 0.0
02/09:00pm 15.8 15.8 9.7 67 3.2 CALM 0 0 0 0 - - 0.0
02/08:30pm 16.0 16.8 12.4 79 2.0 CALM 0 0 0 0 - - 0.0
02/08:00pm 16.5 16.5 9.9 65 3.5 CALM 0 0 0 0 - - 0.0
02/07:30pm 17.3 16.6 11.3 68 3.2 NW 6 9 3 5 - - 0.0
02/07:00pm 18.9 18.5 8.3 50 5.5 CALM 0 0 0 0 - - 0.0
02/06:30pm 21.5 19.7 7.0 39 7.4 WNW 6 9 3 5 - - 0.0

Latest Capital City Observations: Canberra | Sydney | Melbourne | Brisbane | Adelaide | Perth | Hobart | Darwin

Other formats

Comma delimited format used in spreadsheet applications
http://www.bom.gov.au/fwo/IDN60901/IDN60901.94766.axf

JavaScript Object Notation format (JSON) in row-major order
http://www.bom.gov.au/fwo/IDN60901/IDN60901.94766.json

Data quality

Most of these data are generated automatically and are frequently updated. Quality checks on data are not normally performed. It is possible for incorrect values to appear. Refer to information at About Latest Weather Observations and please check the disclaimer before using these data.